Back to top

Evanston, WY weather

Evanston-Unita County Airport/Burns Field, Evanston, WY: 7/04/2020 03:53
Visibility10 statute milesclear sky
View 7-Day Forecast
Area Summary
Sky/CloudsSky Clear
Weather [last 24 hours]None
Pressure30.25 in.Hg (1025 hPa)
Dew Point34 °F (1.1 °C)
Relative Humidity38.8 %
Temperature59 °F (15 °C)red thermometer
Reading TimeMinimum to Maximum Temperature
6-hr ending 7/3@23:5361 °F to 81 °F (16.1 °C to 27.2 °C)
6-hr ending 7/3@17:5375 °F to 81 °F (23.9 °C to 27.2 °C)
24-hr ending 7/4@00:5353.1 °F to 81 °F (11.7 °C to 27.2 °C)
Wind8.06 MPH (7 KT) green arrow pointing 157.5 degrees
Wind FromSouth/Southeast (160 Degrees)
Twilight Begins05:22Sunshine Yesterday
Sunrise05:56N/A
Sunset21:02
Twilight Ends21:35
METARKEVW 040953Z AUTO 16007KT 10SM CLR 15/01 A3025 RMK AO2 SLP140 T01500011
Tags: